Terminal Aerodrome Forecast
Issued by NWS

Home | Current Version | Previous Version | Text Only | Print | Product List | Glossary On
Versions: 1 2 3 4 5 6 7 8 9 10 11 12 13 14 15 16 17 18
092
FTUS44 KTSA 050902 AAA
TAFMLC
TAF AMD
KMLC 050902Z 0509/0606 VRB02KT 4SM BR SCT002 BKN200
      TEMPO 0509/0513 2SM BR BKN002
     FM051400 12005KT P6SM SCT030 BKN080
     FM052200 09007KT P6SM VCSH BKN025
     FM060000 11006KT 5SM -RA BR OVC015=

USA.gov is the U.S. government's official web portal to all federal, state and local government web resources and services.